createdAt,value
2024-03-07T00:01:01.593Z,23.40
2024-03-07T00:03:30.132Z,24.63
2024-03-07T00:05:57.131Z,24.03
2024-03-07T00:08:28.018Z,23.67
2024-03-07T00:10:55.128Z,24.33
2024-03-07T00:13:22.672Z,23.37
2024-03-07T00:15:49.608Z,24.90
2024-03-07T00:18:16.648Z,25.90
2024-03-07T00:20:44.189Z,24.13
2024-03-07T00:23:11.302Z,23.17
2024-03-07T00:25:39.933Z,25.07
2024-03-07T00:28:08.030Z,24.43
2024-03-07T00:30:35.265Z,25.03
2024-03-07T00:33:02.504Z,24.13
2024-03-07T00:35:29.573Z,24.43
2024-03-07T00:37:57.678Z,27.97
2024-03-07T00:40:27.762Z,25.87
2024-03-07T00:42:55.095Z,26.40
2024-03-07T00:45:22.341Z,24.90
2024-03-07T00:47:49.761Z,24.63
2024-03-07T00:50:17.256Z,25.50
2024-03-07T00:52:44.278Z,25.60
2024-03-07T00:55:11.321Z,24.07
2024-03-07T00:57:38.611Z,26.30
2024-03-07T01:00:13.029Z,25.93
2024-03-07T01:02:44.560Z,27.03
2024-03-07T01:05:14.588Z,27.00
2024-03-07T01:07:42.512Z,28.57
2024-03-07T01:10:10.663Z,27.00
2024-03-07T01:12:38.056Z,25.57
2024-03-07T01:15:09.893Z,25.73
2024-03-07T01:17:36.993Z,23.63
2024-03-07T01:20:07.700Z,23.80
2024-03-07T01:22:35.371Z,23.17
2024-03-07T01:25:02.597Z,24.87
2024-03-07T01:27:29.930Z,26.97
2024-03-07T01:29:57.043Z,25.87
2024-03-07T01:32:26.656Z,25.70
2024-03-07T01:34:53.964Z,27.30
2024-03-07T01:37:20.945Z,26.93
2024-03-07T01:39:51.170Z,27.97
2024-03-07T01:42:21.082Z,26.47
2024-03-07T01:44:52.584Z,27.20
2024-03-07T01:47:20.118Z,26.07
2024-03-07T01:49:47.217Z,26.97
2024-03-07T01:52:14.804Z,27.37
2024-03-07T01:54:43.584Z,29.47
2024-03-07T01:57:11.439Z,27.23
2024-03-07T01:59:39.100Z,27.23
2024-03-07T02:02:08.942Z,28.63
2024-03-07T02:04:35.942Z,29.10
2024-03-07T02:07:03.088Z,27.03
2024-03-07T02:09:30.708Z,27.67
2024-03-07T02:11:57.832Z,26.97
2024-03-07T02:14:25.066Z,28.00
2024-03-07T02:16:52.397Z,26.50
2024-03-07T02:19:19.318Z,26.13
2024-03-07T02:21:46.292Z,26.77
2024-03-07T02:24:13.364Z,25.67
2024-03-07T02:26:41.172Z,24.53
2024-03-07T02:29:08.508Z,26.07
2024-03-07T02:31:38.195Z,23.83
2024-03-07T02:34:05.602Z,23.93
2024-03-07T02:36:35.493Z,23.30
2024-03-07T02:39:02.826Z,22.40
2024-03-07T02:41:29.857Z,21.77
2024-03-07T02:43:56.773Z,21.60
2024-03-07T02:46:23.708Z,21.97
2024-03-07T02:48:50.710Z,20.60
2024-03-07T02:51:17.797Z,21.73
2024-03-07T02:53:47.642Z,20.80
2024-03-07T02:56:15.238Z,21.50
2024-03-07T02:58:42.280Z,23.40
2024-03-07T03:01:09.226Z,22.53
2024-03-07T03:03:37.559Z,21.23
2024-03-07T03:06:09.734Z,20.60
2024-03-07T03:08:40.063Z,20.90
2024-03-07T03:11:10.717Z,20.63
2024-03-07T03:13:44.831Z,20.37
2024-03-07T03:16:11.901Z,20.63
2024-03-07T03:18:41.893Z,19.57
2024-03-07T03:21:09.301Z,20.57
2024-03-07T03:23:37.582Z,20.23
2024-03-07T03:26:05.028Z,20.93
2024-03-07T03:28:32.922Z,18.53
2024-03-07T03:31:00.297Z,18.50
2024-03-07T03:33:27.377Z,17.87
2024-03-07T03:35:56.675Z,19.77
2024-03-07T03:38:23.857Z,20.03
2024-03-07T03:40:50.936Z,18.43
2024-03-07T03:43:18.046Z,18.83
2024-03-07T03:45:45.001Z,18.07
2024-03-07T03:48:12.078Z,18.60
2024-03-07T03:50:39.280Z,17.50
2024-03-07T03:53:11.295Z,16.03
2024-03-07T03:55:38.374Z,17.37
2024-03-07T03:58:06.820Z,15.57
2024-03-07T04:00:33.938Z,17.10
2024-03-07T04:03:04.150Z,17.70
2024-03-07T04:05:31.277Z,15.47
2024-03-07T04:07:59.731Z,14.73
2024-03-07T04:10:27.025Z,15.20
2024-03-07T04:12:53.922Z,15.13
2024-03-07T04:15:27.898Z,15.40
2024-03-07T04:17:54.934Z,15.60
2024-03-07T04:20:21.911Z,15.47
2024-03-07T04:22:50.667Z,13.63
2024-03-07T04:25:18.091Z,14.23
2024-03-07T04:27:47.961Z,15.13
2024-03-07T04:30:18.284Z,14.40
2024-03-07T04:32:45.424Z,13.40
2024-03-07T04:35:15.257Z,15.17
2024-03-07T04:37:44.155Z,14.47
2024-03-07T04:40:18.600Z,14.00
2024-03-07T04:42:47.976Z,15.47
2024-03-07T04:45:15.701Z,16.07
2024-03-07T04:47:46.688Z,16.10
2024-03-07T04:50:19.425Z,15.07
2024-03-07T04:52:47.764Z,14.63
2024-03-07T04:55:17.501Z,15.23
2024-03-07T04:57:44.862Z,13.43
2024-03-07T05:00:15.588Z,15.53
2024-03-07T05:02:49.932Z,14.27
2024-03-07T05:05:23.597Z,13.70
2024-03-07T05:07:52.242Z,13.90
2024-03-07T05:10:19.801Z,14.40
2024-03-07T05:12:47.139Z,15.03
2024-03-07T05:15:14.140Z,13.37
2024-03-07T05:17:44.029Z,14.57
2024-03-07T05:20:12.187Z,14.27
2024-03-07T05:22:42.145Z,14.40
2024-03-07T05:25:10.462Z,13.83
2024-03-07T05:27:37.605Z,14.37
2024-03-07T05:30:13.755Z,14.17
2024-03-07T05:32:41.332Z,14.10
2024-03-07T05:35:08.860Z,14.67
2024-03-07T05:37:35.861Z,15.33
2024-03-07T05:40:04.935Z,15.23
2024-03-07T05:42:33.210Z,14.90
2024-03-07T05:45:01.614Z,14.07
2024-03-07T05:47:28.765Z,14.60
2024-03-07T05:49:55.761Z,14.57
2024-03-07T05:52:22.843Z,15.30
2024-03-07T05:54:49.700Z,14.13
2024-03-07T05:57:21.104Z,15.77
2024-03-07T05:59:49.010Z,13.60
2024-03-07T06:02:16.676Z,14.53
2024-03-07T06:04:44.862Z,14.13
2024-03-07T06:07:14.852Z,13.23
2024-03-07T06:09:41.813Z,13.53
2024-03-07T06:12:19.476Z,13.20
2024-03-07T06:14:50.961Z,13.57
2024-03-07T06:17:22.957Z,13.00
2024-03-07T06:19:50.496Z,13.77
2024-03-07T06:22:17.588Z,13.13
2024-03-07T06:24:45.851Z,14.00
2024-03-07T06:27:27.841Z,13.73
2024-03-07T06:29:55.624Z,12.93
2024-03-07T06:32:23.949Z,13.17
2024-03-07T06:34:52.418Z,13.43
2024-03-07T06:37:22.848Z,12.93
2024-03-07T06:39:49.865Z,12.27
2024-03-07T06:42:19.718Z,13.90
2024-03-07T06:44:47.260Z,13.23
2024-03-07T06:47:14.891Z,12.87
2024-03-07T06:49:42.315Z,12.70
2024-03-07T06:52:12.443Z,13.20
2024-03-07T06:54:39.459Z,13.33
2024-03-07T06:57:09.774Z,14.07
2024-03-07T06:59:37.501Z,13.43
2024-03-07T07:02:05.055Z,13.00
2024-03-07T07:04:43.196Z,12.37
2024-03-07T07:07:13.283Z,12.20
2024-03-07T07:09:52.695Z,12.53
2024-03-07T07:12:21.642Z,13.00
2024-03-07T07:14:51.804Z,13.60
2024-03-07T07:17:22.679Z,12.80
2024-03-07T07:20:00.619Z,13.03
2024-03-07T07:22:29.906Z,13.13
2024-03-07T07:25:33.307Z,12.13
2024-03-07T07:27:54.059Z,13.67
2024-03-07T07:30:26.564Z,14.23
2024-03-07T07:32:56.049Z,13.43
2024-03-07T07:35:23.766Z,13.40
2024-03-07T07:37:55.093Z,12.80
2024-03-07T07:40:24.338Z,17.23
2024-03-07T07:42:53.620Z,16.23
2024-03-07T07:45:23.370Z,17.00
2024-03-07T07:47:55.753Z,13.67
2024-03-07T07:50:24.930Z,13.60
2024-03-07T07:52:55.150Z,14.70
2024-03-07T07:55:28.638Z,13.33
2024-03-07T07:58:03.986Z,13.10
2024-03-07T08:00:36.252Z,12.73
2024-03-07T08:03:05.597Z,13.47
2024-03-07T08:05:37.589Z,12.67
2024-03-07T08:08:07.949Z,13.13
2024-03-07T08:10:36.973Z,13.93
2024-03-07T08:13:11.823Z,13.17
2024-03-07T08:15:39.055Z,13.20
2024-03-07T08:18:13.322Z,13.60
2024-03-07T08:20:42.383Z,12.77
2024-03-07T08:23:10.897Z,11.97
2024-03-07T08:25:40.825Z,12.70
2024-03-07T08:28:09.037Z,11.90
2024-03-07T08:30:36.260Z,12.83
2024-03-07T08:33:07.113Z,12.00
2024-03-07T08:35:35.154Z,12.27
2024-03-07T08:38:06.378Z,11.60
2024-03-07T08:40:34.543Z,10.93
2024-03-07T08:43:02.871Z,12.50
2024-03-07T08:45:35.441Z,12.27
2024-03-07T08:48:08.496Z,13.07
2024-03-07T08:50:38.810Z,10.60
2024-03-07T08:53:06.802Z,10.80
2024-03-07T08:55:34.161Z,10.93
2024-03-07T08:58:02.690Z,11.10
2024-03-07T09:00:29.749Z,11.40
2024-03-07T09:03:02.470Z,11.87
2024-03-07T09:05:34.975Z,11.53
2024-03-07T09:08:03.103Z,11.67
2024-03-07T09:10:36.310Z,12.30
2024-03-07T09:13:03.839Z,11.73
2024-03-07T09:15:30.763Z,11.50
2024-03-07T09:18:10.309Z,11.77
2024-03-07T09:20:39.170Z,11.57
2024-03-07T09:23:07.212Z,12.47
2024-03-07T09:25:35.796Z,11.50
2024-03-07T09:28:02.882Z,11.33
2024-03-07T09:30:32.019Z,10.73
2024-03-07T09:33:03.536Z,11.80
2024-03-07T09:35:30.636Z,11.97
2024-03-07T09:38:00.441Z,10.77
2024-03-07T09:40:28.338Z,11.93
2024-03-07T09:42:58.730Z,11.83
2024-03-07T09:45:31.460Z,11.93
2024-03-07T09:48:00.760Z,11.83
2024-03-07T09:50:31.009Z,12.50
2024-03-07T09:53:02.016Z,11.27
2024-03-07T09:55:29.385Z,11.83
2024-03-07T09:57:59.373Z,11.37
2024-03-07T10:00:29.509Z,11.73
2024-03-07T10:03:06.645Z,12.40
2024-03-07T10:05:34.336Z,13.70
2024-03-07T10:08:02.998Z,11.97
2024-03-07T10:10:32.477Z,13.27
2024-03-07T10:13:06.506Z,14.13
2024-03-07T10:15:41.212Z,14.13
2024-03-07T10:18:11.206Z,13.23
2024-03-07T10:20:41.025Z,13.63
2024-03-07T10:23:12.055Z,13.40
2024-03-07T10:25:39.919Z,14.27
2024-03-07T10:28:10.278Z,14.90
2024-03-07T10:30:46.849Z,16.03
2024-03-07T10:33:14.718Z,15.83
2024-03-07T10:35:47.929Z,14.50
2024-03-07T10:38:15.961Z,16.07
2024-03-07T10:40:44.846Z,15.67
2024-03-07T10:43:13.313Z,15.50
2024-03-07T10:45:48.609Z,16.40
2024-03-07T10:48:24.946Z,15.73
2024-03-07T10:51:18.549Z,16.27
2024-03-07T10:54:02.493Z,15.73
2024-03-07T10:56:51.661Z,17.37
2024-03-07T10:59:20.808Z,18.10
2024-03-07T11:02:01.143Z,15.80
2024-03-07T11:04:31.371Z,15.97
2024-03-07T11:07:00.148Z,15.77
2024-03-07T11:09:34.943Z,16.80
2024-03-07T11:12:07.897Z,17.13
2024-03-07T11:14:38.832Z,15.70
2024-03-07T11:17:07.631Z,16.43
2024-03-07T11:19:38.186Z,16.93
2024-03-07T11:22:18.504Z,17.17
2024-03-07T11:24:46.868Z,17.73
2024-03-07T11:27:17.580Z,17.43
2024-03-07T11:29:48.093Z,17.27
2024-03-07T11:32:16.352Z,16.77
2024-03-07T11:34:48.256Z,18.00
2024-03-07T11:37:41.991Z,16.87
2024-03-07T11:40:10.169Z,15.80
2024-03-07T11:42:37.839Z,19.97
2024-03-07T11:45:08.398Z,17.53
2024-03-07T11:47:40.421Z,17.73
2024-03-07T11:50:13.470Z,17.90
2024-03-07T11:52:45.745Z,18.90
2024-03-07T11:55:17.630Z,20.37
2024-03-07T11:57:46.031Z,18.73
2024-03-07T12:00:14.097Z,21.40
2024-03-07T12:02:41.778Z,18.87
2024-03-07T12:05:09.360Z,20.10
2024-03-07T12:07:39.617Z,20.47
2024-03-07T12:10:07.936Z,24.97
2024-03-07T12:12:35.373Z,22.80
2024-03-07T12:15:22.172Z,21.63
2024-03-07T12:17:51.080Z,20.70
2024-03-07T12:20:50.610Z,21.10
2024-03-07T12:23:20.599Z,22.83
2024-03-07T12:25:48.981Z,22.60
2024-03-07T12:28:31.066Z,22.23
2024-03-07T12:30:58.841Z,22.73
2024-03-07T12:33:28.738Z,26.43
2024-03-07T12:57:11.907Z,26.20
2024-03-07T12:59:43.069Z,24.13
2024-03-07T13:02:11.755Z,23.87
2024-03-07T13:04:41.318Z,24.97
2024-03-07T13:07:11.439Z,23.73
2024-03-07T13:09:45.458Z,25.43
2024-03-07T13:12:15.330Z,24.30
2024-03-07T13:14:47.465Z,24.70
2024-03-07T13:17:15.395Z,26.30
2024-03-07T13:19:44.954Z,25.00
2024-03-07T13:22:13.311Z,24.07
2024-03-07T13:24:43.894Z,23.60
2024-03-07T13:27:21.252Z,23.67
2024-03-07T13:29:51.502Z,22.83
2024-03-07T13:32:18.618Z,23.13
2024-03-07T13:34:46.821Z,23.00
2024-03-07T13:37:19.314Z,23.57
2024-03-07T13:39:48.360Z,22.70
2024-03-07T13:42:16.066Z,22.23
2024-03-07T13:44:46.062Z,21.03
2024-03-07T13:47:13.016Z,23.10
2024-03-07T13:49:40.051Z,23.20
2024-03-07T13:52:19.726Z,22.27
2024-03-07T13:54:49.435Z,21.47
2024-03-07T13:57:44.662Z,23.60
2024-03-07T14:01:10.389Z,22.23
2024-03-07T14:04:23.004Z,20.37
2024-03-07T14:07:15.503Z,20.97
2024-03-07T14:10:25.936Z,23.30
2024-03-07T14:13:21.569Z,22.37
2024-03-07T14:16:09.968Z,23.37
2024-03-07T14:19:22.761Z,21.77
2024-03-07T14:22:18.378Z,20.23
2024-03-07T14:25:07.140Z,24.27
2024-03-07T14:27:40.466Z,22.73
2024-03-07T14:30:41.677Z,25.20
2024-03-07T14:33:09.799Z,22.93
2024-03-07T14:36:05.160Z,24.37
2024-03-07T14:38:45.859Z,24.03
2024-03-07T14:41:13.898Z,23.70
2024-03-07T14:43:42.554Z,22.20
2024-03-07T14:46:15.177Z,22.30
2024-03-07T14:48:47.351Z,21.60
2024-03-07T14:51:19.389Z,21.23
2024-03-07T14:53:46.837Z,21.43
2024-03-07T14:56:13.765Z,21.87
2024-03-07T14:58:42.462Z,23.70
2024-03-07T15:01:09.710Z,22.73
2024-03-07T15:03:40.760Z,21.33
2024-03-07T15:06:10.100Z,21.70
2024-03-07T15:08:40.048Z,22.50
2024-03-07T15:11:35.883Z,23.03
2024-03-07T15:14:05.666Z,22.37
2024-03-07T15:16:38.755Z,22.60
2024-03-07T15:19:08.194Z,20.77
2024-03-07T15:21:36.505Z,21.73
2024-03-07T15:24:04.696Z,22.43
2024-03-07T15:26:36.503Z,22.57
2024-03-07T15:29:03.750Z,22.53
2024-03-07T15:31:31.935Z,22.37
2024-03-07T15:34:00.141Z,25.60
2024-03-07T15:36:27.656Z,23.40
2024-03-07T15:38:58.848Z,23.90
2024-03-07T15:41:26.113Z,24.37
2024-03-07T15:43:55.958Z,24.93
2024-03-07T15:46:23.844Z,24.20
2024-03-07T15:48:51.435Z,24.80
2024-03-07T15:51:20.250Z,23.60
2024-03-07T15:53:47.410Z,26.03
2024-03-07T15:56:15.102Z,26.13
2024-03-07T15:58:42.348Z,29.17
2024-03-07T16:01:09.591Z,28.67
2024-03-07T16:03:43.320Z,30.57
2024-03-07T16:06:17.838Z,27.70
2024-03-07T16:08:45.468Z,30.00
2024-03-07T16:11:12.529Z,31.17
2024-03-07T16:13:57.737Z,30.40
2024-03-07T16:16:32.017Z,29.93
2024-03-07T16:19:01.629Z,31.70
2024-03-07T16:21:31.233Z,31.83
2024-03-07T16:23:58.225Z,32.07
2024-03-07T16:26:26.268Z,32.63
2024-03-07T16:28:59.001Z,33.13
2024-03-07T16:31:29.588Z,37.40
2024-03-07T16:33:57.304Z,32.40
2024-03-07T16:36:24.357Z,36.30
2024-03-07T16:38:54.001Z,32.97
2024-03-07T16:41:23.835Z,32.37
2024-03-07T16:43:53.985Z,33.73
2024-03-07T16:46:21.560Z,32.40
2024-03-07T16:48:48.543Z,32.90
2024-03-07T16:51:15.674Z,33.63
2024-03-07T16:53:42.700Z,34.07
2024-03-07T16:56:11.057Z,34.40
2024-03-07T16:58:38.007Z,35.73
2024-03-07T17:01:05.514Z,33.90
2024-03-07T17:03:32.485Z,35.03
2024-03-07T17:06:02.439Z,33.47
2024-03-07T17:08:29.820Z,35.30
2024-03-07T17:10:57.535Z,35.53
2024-03-07T17:13:24.797Z,36.33
2024-03-07T17:15:57.923Z,35.50
2024-03-07T17:18:28.471Z,36.30
2024-03-07T17:20:56.380Z,35.60
2024-03-07T17:23:25.182Z,36.63
2024-03-07T17:25:56.948Z,38.97
2024-03-07T17:28:24.102Z,35.73
2024-03-07T17:30:51.868Z,38.13
2024-03-07T17:33:18.876Z,37.13
2024-03-07T17:35:49.232Z,42.33
2024-03-07T17:38:16.268Z,40.20
2024-03-07T17:40:44.249Z,39.07
2024-03-07T17:43:12.231Z,45.97
2024-03-07T17:45:39.577Z,40.73
2024-03-07T17:48:12.060Z,39.10
2024-03-07T17:50:39.919Z,36.20
2024-03-07T17:53:12.390Z,37.30
2024-03-07T17:55:47.338Z,37.77
2024-03-07T17:58:15.660Z,38.17
2024-03-07T18:00:46.533Z,33.73
2024-03-07T18:03:14.426Z,37.30
2024-03-07T18:05:43.139Z,37.50
2024-03-07T18:11:01.964Z,39.77
2024-03-07T18:13:34.408Z,40.70
2024-03-07T18:16:01.914Z,38.83
2024-03-07T18:18:29.211Z,41.47
2024-03-07T18:20:57.756Z,38.43
2024-03-07T18:23:25.281Z,40.87
2024-03-07T18:25:55.584Z,43.73
2024-03-07T18:28:23.985Z,40.87
2024-03-07T18:30:52.213Z,42.03
2024-03-07T18:33:20.192Z,41.80
2024-03-07T18:35:48.184Z,40.30
2024-03-07T18:38:18.296Z,40.17
2024-03-07T18:40:48.167Z,43.17
2024-03-07T18:43:18.289Z,46.27
2024-03-07T18:45:47.993Z,44.13
2024-03-07T18:48:18.530Z,41.47
2024-03-07T18:50:47.861Z,46.63
2024-03-07T18:53:21.591Z,45.33
2024-03-07T18:55:51.134Z,44.13
2024-03-07T18:58:25.164Z,44.20
2024-03-07T19:00:58.499Z,46.03
2024-03-07T19:03:26.010Z,44.40
2024-03-07T19:05:53.723Z,46.57
2024-03-07T19:08:20.839Z,52.40
2024-03-07T19:11:01.754Z,52.00
2024-03-07T19:13:45.886Z,45.53
2024-03-07T19:16:32.937Z,49.17
2024-03-07T19:19:02.217Z,44.47
2024-03-07T19:21:29.254Z,44.37
2024-03-07T19:23:56.343Z,49.50
2024-03-07T19:26:24.211Z,45.70
2024-03-07T19:28:51.864Z,44.87
2024-03-07T19:31:20.498Z,46.13
2024-03-07T19:34:03.796Z,46.10
2024-03-07T19:36:30.993Z,44.37
2024-03-07T19:38:59.874Z,45.17
2024-03-07T19:41:27.407Z,46.67
2024-03-07T19:43:54.987Z,43.93
2024-03-07T19:46:24.182Z,42.80
2024-03-07T19:48:55.759Z,42.67
2024-03-07T19:51:26.486Z,47.20
2024-03-07T19:53:54.667Z,46.23
2024-03-07T19:56:25.869Z,43.57
2024-03-07T19:58:53.482Z,44.60
2024-03-07T20:01:23.829Z,47.13
2024-03-07T20:03:50.874Z,47.23
2024-03-07T20:06:20.007Z,43.13
2024-03-07T20:08:48.827Z,43.00
2024-03-07T20:11:15.997Z,44.57
2024-03-07T20:13:43.824Z,44.90
2024-03-07T20:16:14.427Z,43.93
2024-03-07T20:18:43.382Z,44.77
2024-03-07T20:21:11.427Z,45.37
2024-03-07T20:23:39.222Z,43.77
2024-03-07T20:26:06.717Z,44.37
2024-03-07T20:28:36.598Z,45.23
2024-03-07T20:31:05.054Z,43.37
2024-03-07T20:33:33.292Z,44.60
2024-03-07T20:36:06.081Z,43.53
2024-03-07T20:38:33.786Z,44.90
2024-03-07T20:41:01.329Z,44.60
2024-03-07T20:43:32.228Z,44.40
2024-03-07T20:46:03.609Z,44.37
2024-03-07T20:48:33.737Z,47.53
2024-03-07T20:51:01.337Z,44.90
2024-03-07T20:53:31.493Z,48.00
2024-03-07T20:56:07.490Z,45.80
2024-03-07T20:58:37.327Z,43.33
2024-03-07T21:01:04.921Z,45.37
2024-03-07T21:03:32.024Z,42.57
2024-03-07T21:05:59.657Z,46.70
2024-03-07T21:08:27.506Z,47.20
2024-03-07T21:10:56.708Z,46.67
2024-03-07T21:13:24.518Z,47.50
2024-03-07T21:15:51.493Z,43.60
2024-03-07T21:18:20.634Z,48.83
2024-03-07T21:20:49.066Z,44.27
2024-03-07T21:23:19.184Z,44.10
2024-03-07T21:25:46.752Z,45.23
2024-03-07T21:28:14.041Z,48.23
2024-03-07T21:30:41.158Z,46.47
2024-03-07T21:33:08.760Z,46.20
2024-03-07T21:35:36.681Z,43.97
2024-03-07T21:38:07.268Z,46.10
2024-03-07T21:40:34.243Z,44.37
2024-03-07T21:43:04.658Z,48.00
2024-03-07T21:45:31.766Z,48.47
2024-03-07T21:47:59.143Z,45.77
2024-03-07T21:50:30.283Z,45.47
2024-03-07T21:52:57.441Z,46.03
2024-03-07T21:55:25.429Z,44.83
2024-03-07T21:57:55.739Z,45.67
2024-03-07T22:00:25.722Z,45.90
2024-03-07T22:03:00.390Z,44.43
2024-03-07T22:05:34.412Z,46.93
2024-03-07T22:08:05.426Z,45.40
2024-03-07T22:10:36.469Z,47.93
2024-03-07T22:13:06.531Z,45.63
2024-03-07T22:15:34.191Z,46.33
2024-03-07T22:18:01.485Z,46.80
2024-03-07T22:20:31.806Z,46.50
2024-03-07T22:22:59.780Z,51.10
2024-03-07T22:25:27.088Z,48.17
2024-03-07T22:27:54.564Z,49.83
2024-03-07T22:30:25.642Z,47.50
2024-03-07T22:32:54.215Z,49.40
2024-03-07T22:35:21.664Z,46.77
2024-03-07T22:37:48.898Z,48.47
2024-03-07T22:40:16.113Z,51.40
2024-03-07T22:42:49.423Z,49.80
2024-03-07T22:45:18.045Z,47.33
2024-03-07T22:47:52.636Z,50.03
2024-03-07T22:50:27.890Z,51.47
2024-03-07T22:52:59.483Z,51.03
2024-03-07T22:55:29.339Z,50.57
2024-03-07T22:57:57.531Z,50.87
2024-03-07T23:00:29.766Z,51.10
2024-03-07T23:03:01.542Z,49.83
2024-03-07T23:05:30.371Z,50.83
2024-03-07T23:08:01.860Z,49.90
2024-03-07T23:10:32.215Z,51.17
2024-03-07T23:13:03.041Z,50.30
2024-03-07T23:15:31.939Z,49.10
2024-03-07T23:18:00.947Z,50.00
2024-03-07T23:20:30.125Z,51.93
2024-03-07T23:22:58.793Z,48.77
2024-03-07T23:25:30.107Z,48.43
2024-03-07T23:27:58.160Z,48.67
2024-03-07T23:30:28.281Z,51.97
2024-03-07T23:33:03.286Z,49.20
2024-03-07T23:35:30.380Z,50.00
2024-03-07T23:37:58.341Z,49.23
2024-03-07T23:40:26.061Z,52.17
2024-03-07T23:42:57.733Z,52.53
2024-03-07T23:45:28.587Z,47.73
2024-03-07T23:47:58.967Z,50.83
2024-03-07T23:50:28.121Z,50.93
2024-03-07T23:52:58.152Z,49.03
2024-03-07T23:55:25.355Z,49.87
2024-03-07T23:57:52.299Z,47.97
